Information Last Ob Photographs Calibration Meteogram Network Table Neighbors Monthly Summaries Observation History Wind Roses Custom Wind Roses Data Calendar Satellite Cloud Product Download Terminal Aerodome Forecast

02 March 2024 Observation History, [MCW] MASON CITY, timezone: America/Chicago

Select Date: Time Order:

Show METARs   Show High Frequency MADIS

Previous Day
Time Wind
(mph)
Vis.
(mi.)
Sky Cond.
(100s ft)
Present Wx Temperature (ºF) Relative
Humidity
Pressure Snow
Depth
(in)
Precipitation (in.)
Air Dwpt Feels Like 6 hour altimeter
(in.)
sea level
(mb)
1 hr 3 hr 6 hr
Max.Min.
12:00 AMS 810 CLR
% 29.9
KMCW 020600Z AUTO 17007KT 10SM CLR M02/M04 A2990 RMK T10201040 MADISHF
12:05 AMS 610 CLR
% 29.9
KMCW 020605Z AUTO 18005KT 10SM CLR M02/M04 A2990 RMK T10201040 MADISHF
12:10 AMS 810 CLR
% 29.9
KMCW 020610Z AUTO 18007KT 10SM CLR M02/M03 A2990 RMK T10201030 MADISHF
12:20 AMS 910 CLR
% 29.9
KMCW 020620Z AUTO 18008KT 10SM CLR M01/M03 A2990 RMK T10101030 MADISHF
12:25 AMSSW 810 CLR
% 29.9
KMCW 020625Z AUTO 19007KT 10SM CLR M01/M03 A2990 RMK T10101030 MADISHF
12:30 AMSSW 810 CLR
% 29.9
KMCW 020630Z AUTO 19007KT 10SM CLR M01/M03 A2990 RMK T10101030 MADISHF
12:35 AMS 910 CLR
% 29.91
KMCW 020635Z AUTO 18008KT 10SM CLR M01/M03 A2991 RMK T10101030 MADISHF
12:40 AMS 910 CLR
% 29.91
KMCW 020640Z AUTO 18008KT 10SM CLR M01/M03 A2991 RMK T10101030 MADISHF
12:45 AMS 910 CLR
% 29.91
KMCW 020645Z AUTO 18008KT 10SM CLR M01/M03 A2991 RMK T10101030 MADISHF
12:50 AMS 810 CLR
% 29.91
KMCW 020650Z AUTO 18007KT 10SM CLR M01/M03 A2991 RMK T10101030 MADISHF
12:53 AMS 910 CLR
302722 88% 29.9110130
KMCW 020653Z AUTO 18008KT 10SM CLR M01/M03 A2991 RMK AO2 SLP130 T10111028
1:00 AMS 810 CLR
% 29.91
KMCW 020700Z AUTO 17007KT 10SM CLR M01/M03 A2991 RMK T10101030 MADISHF
1:10 AMS 1010 CLR
% 29.91
KMCW 020710Z AUTO 18009KT 10SM CLR M01/M03 A2991 RMK T10101030 MADISHF
1:15 AMS 910 CLR
% 29.91
KMCW 020715Z AUTO 17008KT 10SM CLR M02/M03 A2991 RMK T10201030 MADISHF
1:25 AMS 910 CLR
% 29.91
KMCW 020725Z AUTO 18008KT 10SM CLR M02/M03 A2991 RMK T10201030 MADISHF
1:30 AMS 910 CLR
% 29.91
KMCW 020730Z AUTO 18008KT 10SM CLR M02/M03 A2991 RMK T10201030 MADISHF

The IEM API webservice that provided data to this page. For more details, see documentation.

Data Notes

  • For recent years, this page also optionally shows observations from the MADIS High Frequency METAR dataset. This dataset had a problem with temperatures detailed here.